Time;durP1;ratioP1;P1;durP2;ratioP2;P2;SDS_P1;SDS_P2;PMS_P1;PMS_P2;Temp;Humidity;BMP_temperature;BMP_pressure;BME280_temperature;BME280_humidity;BME280_pressure;Samples;Min_cycle;Max_cycle;Signal;HPM_P1;HPM_P2
2022/09/25 00:01:11;;;;;;;12.63;4.45;;;9.90;99.90;;;;;;5061049;28;20021;-80
2022/09/25 00:03:37;;;;;;;12.40;4.15;;;9.90;99.90;;;;;;5058743;28;20044;-81
2022/09/25 00:06:06;;;;;;;12.32;4.50;;;9.90;99.90;;;;;;5051355;28;20061;-80
2022/09/25 00:08:32;;;;;;;5.82;3.50;;;9.80;99.90;;;;;;5037425;28;20473;-79
2022/09/25 00:10:58;;;;;;;12.45;4.03;;;9.80;99.90;;;;;;5040755;28;20025;-79
2022/09/25 00:13:24;;;;;;;11.48;4.25;;;9.80;99.90;;;;;;5054381;28;20081;-80
2022/09/25 00:15:54;;;;;;;8.20;4.40;;;9.70;99.90;;;;;;5056734;28;20025;-80
2022/09/25 00:21:07;;;;;;;13.77;4.60;;;9.60;99.90;;;;;;5056177;28;20078;-81
2022/09/25 00:23:33;;;;;;;8.35;4.18;;;9.60;99.90;;;;;;5043578;28;20033;-81
2022/09/25 00:25:59;;;;;;;7.10;4.50;;;9.60;99.90;;;;;;5048831;28;20022;-81
2022/09/25 00:28:28;;;;;;;7.47;3.63;;;9.50;99.90;;;;;;5044135;28;20103;-81
2022/09/25 00:30:55;;;;;;;10.65;4.57;;;9.40;99.90;;;;;;5055654;28;20029;-82
2022/09/25 00:33:24;;;;;;;8.43;3.67;;;9.50;99.90;;;;;;5055230;28;20037;-81
2022/09/25 00:35:50;;;;;;;5.85;3.97;;;9.50;99.90;;;;;;5055457;28;20075;-82
2022/09/25 00:38:15;;;;;;;4.30;3.60;;;9.40;99.90;;;;;;5055299;28;20060;-82
2022/09/25 00:40:44;;;;;;;7.82;3.80;;;9.40;99.90;;;;;;5053853;28;20167;-81
2022/09/25 00:43:14;;;;;;;5.63;3.90;;;9.40;99.90;;;;;;5055350;28;20058;-81
2022/09/25 00:45:41;;;;;;;8.32;4.00;;;9.40;99.90;;;;;;5055602;28;20017;-81
2022/09/25 00:48:11;;;;;;;5.18;4.03;;;9.40;99.90;;;;;;5055019;28;20040;-80
2022/09/25 00:50:52;;;;;;;9.90;4.15;;;9.40;99.90;;;;;;5046378;28;20029;-81
2022/09/25 00:53:29;;;;;;;7.43;4.00;;;9.40;99.90;;;;;;5053699;28;20033;-80
2022/09/25 00:55:55;;;;;;;8.95;4.07;;;9.40;99.90;;;;;;5057384;28;20044;-80
2022/09/25 00:58:24;;;;;;;7.32;4.45;;;9.30;99.90;;;;;;5054981;28;22043;-81
2022/09/25 01:00:50;;;;;;;9.95;3.90;;;9.30;99.90;;;;;;5055720;28;20017;-81
2022/09/25 01:03:17;;;;;;;7.10;3.58;;;9.30;99.90;;;;;;5055399;28;20112;-79
2022/09/25 01:05:44;;;;;;;8.57;4.00;;;9.30;99.90;;;;;;5054909;28;20024;-80
2022/09/25 01:08:14;;;;;;;7.28;4.50;;;9.30;99.90;;;;;;5054495;28;20032;-79
2022/09/25 01:10:41;;;;;;;6.85;4.65;;;9.30;99.90;;;;;;5054504;28;20100;-79
2022/09/25 01:13:07;;;;;;;8.45;4.45;;;9.30;99.90;;;;;;5054390;28;20035;-80
2022/09/25 01:15:40;;;;;;;6.53;3.97;;;9.40;99.90;;;;;;5039459;28;20017;-80
2022/09/25 01:18:22;;;;;;;11.80;4.47;;;9.40;99.90;;;;;;5054633;28;20482;-80
2022/09/25 01:21:18;;;;;;;10.95;5.10;;;9.40;99.90;;;;;;5053978;28;20473;-79
2022/09/25 01:24:10;;;;;;;10.88;4.43;;;9.40;99.90;;;;;;5054718;28;20064;-80
2022/09/25 01:27:13;;;;;;;11.55;4.78;;;9.40;99.90;;;;;;5054468;28;20473;-79
2022/09/25 01:29:46;;;;;;;11.02;4.22;;;9.40;99.90;;;;;;5053424;28;20051;-80
2022/09/25 01:32:25;;;;;;;10.15;4.88;;;9.40;99.90;;;;;;5054178;28;20110;-80
2022/09/25 01:35:01;;;;;;;6.82;4.07;;;9.30;99.90;;;;;;5054120;28;20017;-79
2022/09/25 01:37:42;;;;;;;6.05;4.03;;;9.30;99.90;;;;;;5053394;28;20393;-80
2022/09/25 01:40:15;;;;;;;8.80;3.78;;;9.20;99.90;;;;;;5055606;28;20377;-80
2022/09/25 01:42:59;;;;;;;5.47;3.83;;;9.20;99.90;;;;;;5053490;28;20084;-79
2022/09/25 01:45:35;;;;;;;7.50;4.35;;;9.20;99.90;;;;;;5054389;28;20044;-80
2022/09/25 01:48:04;;;;;;;8.77;4.60;;;9.20;99.90;;;;;;5054326;28;20021;-80
2022/09/25 01:50:44;;;;;;;7.68;3.90;;;9.20;99.90;;;;;;5053040;28;20377;-80
2022/09/25 01:53:15;;;;;;;9.80;4.38;;;9.20;99.90;;;;;;5054368;28;20118;-80
2022/09/25 01:55:47;;;;;;;;;;;9.10;99.90;;;;;;5054615;28;20112;-80
2022/09/25 01:58:16;;;;;;;10.70;4.55;;;9.10;99.90;;;;;;5053283;28;19911;-80
2022/09/25 02:00:49;;;;;;;8.45;4.25;;;9.10;99.90;;;;;;5053807;28;20083;-79
2022/09/25 02:03:30;;;;;;;4.75;3.63;;;9.10;99.90;;;;;;5053706;28;20068;-81
2022/09/25 02:06:01;;;;;;;8.23;4.28;;;9.00;99.90;;;;;;5053993;28;20465;-79
2022/09/25 02:08:33;;;;;;;;;;;9.00;99.90;;;;;;5053940;28;20016;-81
2022/09/25 02:11:04;;;;;;;5.80;3.78;;;9.00;99.90;;;;;;5053664;28;19927;-79
2022/09/25 02:13:38;;;;;;;9.73;4.28;;;9.30;99.90;;;;;;5052604;28;20028;-79
2022/09/25 02:16:12;;;;;;;6.93;4.10;;;9.00;99.90;;;;;;5041104;28;20481;-79
2022/09/25 02:21:49;;;;;;;5.75;3.95;;;9.00;99.90;;;;;;5057368;28;20044;-79
2022/09/25 02:24:36;;;;;;;7.10;4.15;;;9.00;99.90;;;;;;5038034;28;20482;-79
2022/09/25 02:27:01;;;;;;;7.10;3.92;;;9.00;99.90;;;;;;5053373;28;20052;-81
2022/09/25 02:29:29;;;;;;;9.05;4.93;;;9.00;99.90;;;;;;5052669;28;20377;-80
2022/09/25 02:31:59;;;;;;;4.10;3.50;;;9.00;99.90;;;;;;5051940;28;20037;-81
2022/09/25 02:34:25;;;;;;;5.00;4.05;;;8.90;99.90;;;;;;5052933;28;20025;-80
2022/09/25 02:36:51;;;;;;;9.07;4.57;;;8.90;99.90;;;;;;5054513;28;20439;-80
2022/09/25 02:39:20;;;;;;;5.68;4.15;;;8.90;99.90;;;;;;5050821;28;20059;-81
2022/09/25 02:41:55;;;;;;;6.03;4.28;;;8.80;99.90;;;;;;5042171;28;20029;-81
2022/09/25 02:44:33;;;;;;;6.07;4.20;;;8.80;99.90;;;;;;5053470;28;20055;-81
2022/09/25 02:47:11;;;;;;;8.52;4.32;;;8.80;99.90;;;;;;5044740;28;20013;-81
2022/09/25 02:50:11;;;;;;;6.22;4.18;;;8.70;99.90;;;;;;5053192;28;20120;-80
2022/09/25 02:53:07;;;;;;;7.18;4.13;;;8.70;99.90;;;;;;5038369;28;20038;-80
2022/09/25 02:55:36;;;;;;;9.15;4.82;;;8.70;99.90;;;;;;5042657;28;20052;-80
2022/09/25 02:58:17;;;;;;;7.97;4.65;;;8.70;99.90;;;;;;5050305;28;20029;-80
2022/09/25 03:00:47;;;;;;;8.60;4.57;;;8.70;99.90;;;;;;5052676;28;20817;-80
2022/09/25 03:03:15;;;;;;;9.32;4.65;;;8.80;99.90;;;;;;5052724;28;20035;-80
2022/09/25 03:05:41;;;;;;;7.90;4.50;;;8.80;99.90;;;;;;5052723;28;20052;-81
2022/09/25 03:10:53;;;;;;;6.85;4.47;;;8.80;99.90;;;;;;5054027;28;20028;-80
2022/09/25 03:13:32;;;;;;;8.50;4.72;;;9.20;99.90;;;;;;5039608;28;20098;-80
2022/09/25 03:16:05;;;;;;;7.95;4.68;;;8.80;99.90;;;;;;5040129;28;20064;-81
2022/09/25 03:18:31;;;;;;;7.82;4.28;;;8.90;99.90;;;;;;5053830;28;20071;-81
2022/09/25 03:20:57;;;;;;;6.07;4.55;;;9.00;99.90;;;;;;5053761;28;20021;-81
2022/09/25 03:23:24;;;;;;;7.18;4.40;;;9.00;99.90;;;;;;5053869;28;20033;-82
2022/09/25 03:25:53;;;;;;;6.32;3.92;;;9.00;99.90;;;;;;5039163;28;20028;-81
2022/09/25 03:28:19;;;;;;;7.75;4.20;;;9.10;99.90;;;;;;5052440;28;20084;-81
2022/09/25 03:30:58;;;;;;;10.13;3.97;;;9.10;99.90;;;;;;5054580;28;20035;-81
2022/09/25 03:33:25;;;;;;;10.18;4.05;;;9.10;99.90;;;;;;5056620;28;20033;-80
2022/09/25 03:36:01;;;;;;;5.93;3.55;;;9.10;99.90;;;;;;5053431;28;20350;-80
2022/09/25 03:38:26;;;;;;;5.82;4.45;;;9.00;99.90;;;;;;5053048;28;20024;-81
2022/09/25 03:40:52;;;;;;;5.10;3.90;;;9.00;99.90;;;;;;5052622;28;20017;-80
2022/09/25 03:43:18;;;;;;;6.47;3.83;;;9.00;99.90;;;;;;5052900;28;20123;-81
2022/09/25 03:45:43;;;;;;;5.78;4.57;;;9.00;99.90;;;;;;5039378;28;20118;-81
2022/09/25 03:48:09;;;;;;;4.43;3.97;;;9.00;99.90;;;;;;5053712;28;20021;-81
2022/09/25 03:50:34;;;;;;;8.20;4.20;;;9.10;99.90;;;;;;5057434;28;20729;-81
2022/09/25 03:53:00;;;;;;;7.15;3.92;;;9.10;99.90;;;;;;5057593;28;20047;-80
2022/09/25 03:55:25;;;;;;;9.57;4.10;;;9.10;99.90;;;;;;5058361;28;20052;-81
2022/09/25 03:57:51;;;;;;;6.57;3.47;;;9.10;99.90;;;;;;5060989;28;20040;-80
2022/09/25 04:00:17;;;;;;;10.60;3.88;;;9.20;99.90;;;;;;5068235;28;20091;-80
2022/09/25 04:02:43;;;;;;;3.58;3.17;;;9.20;99.90;;;;;;5068218;28;20480;-81
2022/09/25 04:05:08;;;;;;;3.40;3.10;;;9.20;99.90;;;;;;5058193;28;20025;-79
2022/09/25 04:07:35;;;;;;;6.60;3.72;;;9.10;99.90;;;;;;5056344;28;20095;-81
2022/09/25 04:10:00;;;;;;;6.68;3.53;;;9.10;99.90;;;;;;5056540;28;20096;-80
2022/09/25 04:12:27;;;;;;;4.10;3.70;;;9.20;99.90;;;;;;5055669;28;20052;-81
2022/09/25 04:14:53;;;;;;;6.40;3.30;;;9.20;99.90;;;;;;5056344;28;20036;-80
2022/09/25 04:17:19;;;;;;;6.45;4.22;;;9.20;99.90;;;;;;5051807;28;20026;-79
2022/09/25 04:19:45;;;;;;;4.32;3.30;;;9.20;99.90;;;;;;5046492;28;20377;-80
2022/09/25 04:22:11;;;;;;;6.78;3.42;;;9.10;99.90;;;;;;5053749;28;20029;-81
2022/09/25 04:24:49;;;;;;;6.35;3.65;;;9.20;99.90;;;;;;5044081;28;20117;-81
2022/09/25 04:27:20;;;;;;;5.13;3.50;;;9.10;99.90;;;;;;5056493;28;20079;-81
2022/09/25 04:29:47;;;;;;;4.95;3.25;;;9.10;99.90;;;;;;5056414;28;20076;-80
2022/09/25 04:34:58;;;;;;;9.93;4.65;;;9.00;99.90;;;;;;5057846;28;20026;-80
2022/09/25 04:37:27;;;;;;;3.90;3.13;;;9.00;99.90;;;;;;5055197;28;20481;-81
2022/09/25 04:39:54;;;;;;;7.60;3.70;;;8.90;99.90;;;;;;5054590;28;20024;-80
2022/09/25 04:42:23;;;;;;;7.10;3.80;;;8.90;99.90;;;;;;5054878;28;20059;-80
2022/09/25 04:44:50;;;;;;;7.65;3.88;;;8.80;99.90;;;;;;5055096;28;20104;-80
2022/09/25 04:47:15;;;;;;;7.97;4.13;;;8.80;99.90;;;;;;5054548;28;20028;-80
2022/09/25 04:49:41;;;;;;;6.38;3.85;;;8.80;99.90;;;;;;5056552;28;20047;-80
2022/09/25 04:52:06;;;;;;;8.15;3.95;;;8.80;99.90;;;;;;5056720;28;20063;-80
2022/09/25 04:54:32;;;;;;;5.22;4.15;;;8.80;99.90;;;;;;5055986;28;20362;-81
2022/09/25 04:56:58;;;;;;;8.35;4.30;;;8.80;99.90;;;;;;5057596;28;20021;-80
2022/09/25 04:59:23;;;;;;;6.93;3.97;;;8.80;99.90;;;;;;5056250;28;20025;-81
2022/09/25 05:01:49;;;;;;;4.32;3.70;;;8.80;99.90;;;;;;5058236;28;20029;-81
2022/09/25 05:04:15;;;;;;;4.03;3.40;;;8.80;99.90;;;;;;5057908;28;20037;-80
2022/09/25 05:06:41;;;;;;;8.82;3.65;;;8.80;99.90;;;;;;5060345;28;20044;-79
2022/09/25 05:09:06;;;;;;;5.72;4.28;;;8.70;99.90;;;;;;5055950;28;20404;-80
2022/09/25 05:11:32;;;;;;;7.55;4.43;;;8.80;99.90;;;;;;5056336;28;20021;-80
2022/09/25 05:13:57;;;;;;;6.80;3.67;;;8.70;99.90;;;;;;5049143;28;20033;-79
2022/09/25 05:16:23;;;;;;;4.90;4.10;;;8.70;99.90;;;;;;5044266;28;20129;-80
2022/09/25 05:18:49;;;;;;;4.47;3.92;;;8.80;99.90;;;;;;5054328;28;20033;-80
2022/09/25 05:21:14;;;;;;;3.30;3.10;;;8.80;99.90;;;;;;5053518;28;20410;-80
2022/09/25 05:23:40;;;;;;;5.68;4.25;;;8.70;99.90;;;;;;5054025;28;20037;-80
2022/09/25 05:26:05;;;;;;;6.22;4.18;;;8.70;99.90;;;;;;5054864;28;20025;-79
2022/09/25 05:28:31;;;;;;;5.85;3.92;;;8.70;99.90;;;;;;5053007;28;20076;-79
2022/09/25 05:31:02;;;;;;;7.93;4.05;;;8.70;99.90;;;;;;5040657;28;20028;-79
2022/09/25 05:33:28;;;;;;;3.90;3.47;;;8.70;99.90;;;;;;5054848;28;20025;-79
2022/09/25 05:35:54;;;;;;;6.07;3.47;;;8.70;99.90;;;;;;5054950;28;20033;-79
2022/09/25 05:38:19;;;;;;;4.53;3.60;;;8.60;99.90;;;;;;5054661;28;20385;-79
2022/09/25 05:40:45;;;;;;;22.20;3.47;;;8.70;99.90;;;;;;5054503;28;20045;-79
2022/09/25 05:43:11;;;;;;;6.60;3.08;;;8.60;99.90;;;;;;5053697;28;20388;-80
2022/09/25 05:45:37;;;;;;;5.75;3.05;;;8.60;99.90;;;;;;5055372;28;20025;-79
2022/09/25 05:48:07;;;;;;;8.52;4.20;;;8.60;99.90;;;;;;5054618;28;20047;-80
2022/09/25 05:50:33;;;;;;;3.72;3.38;;;8.50;99.90;;;;;;5053236;28;20036;-80
2022/09/25 05:53:01;;;;;;;4.07;3.78;;;8.50;99.90;;;;;;5037931;28;20030;-79
2022/09/25 05:55:28;;;;;;;5.47;3.58;;;8.50;99.90;;;;;;5040463;28;20037;-80
2022/09/25 05:57:58;;;;;;;3.63;3.17;;;8.50;99.90;;;;;;5043917;28;20025;-80
2022/09/25 06:00:23;;;;;;;6.60;3.50;;;8.50;99.90;;;;;;5041607;28;20358;-80
2022/09/25 06:02:51;;;;;;;4.10;3.70;;;8.50;99.90;;;;;;5047857;28;20056;-80
2022/09/25 06:05:17;;;;;;;6.50;4.07;;;8.60;99.90;;;;;;5044650;28;20021;-79
2022/09/25 06:07:42;;;;;;;8.90;4.15;;;8.70;99.90;;;;;;5036210;28;20420;-79
2022/09/25 06:10:09;;;;;;;4.55;3.80;;;8.80;99.90;;;;;;5032649;28;20032;-80
2022/09/25 06:12:34;;;;;;;6.20;4.57;;;8.80;99.90;;;;;;5045227;28;20104;-80
2022/09/25 06:15:00;;;;;;;9.77;4.10;;;8.90;99.90;;;;;;5037467;28;20458;-80
2022/09/25 06:17:25;;;;;;;5.03;3.83;;;9.00;99.90;;;;;;5036836;28;20021;-80
2022/09/25 06:19:51;;;;;;;7.68;3.95;;;9.00;99.90;;;;;;5042548;28;20026;-80
2022/09/25 06:22:16;;;;;;;5.47;4.53;;;9.10;99.90;;;;;;5062712;28;21524;-80
2022/09/25 06:24:44;;;;;;;8.20;4.50;;;9.20;99.90;;;;;;5041185;28;20028;-79
2022/09/25 06:27:10;;;;;;;7.40;4.38;;;9.30;99.90;;;;;;5038852;28;20222;-81
2022/09/25 06:29:35;;;;;;;4.20;3.78;;;9.40;99.90;;;;;;5053070;28;20061;-81
2022/09/25 06:32:02;;;;;;;6.00;3.63;;;9.60;99.90;;;;;;5038257;28;20066;-81
2022/09/25 06:34:27;;;;;;;5.97;3.67;;;9.70;99.90;;;;;;5053998;28;20043;-81
2022/09/25 06:36:53;;;;;;;7.07;3.90;;;9.80;99.90;;;;;;5051801;28;20199;-81
2022/09/25 06:39:19;;;;;;;6.13;3.40;;;10.00;99.90;;;;;;5047197;28;20026;-79
2022/09/25 06:41:47;;;;;;;6.35;3.70;;;10.10;99.90;;;;;;5049121;28;20452;-80
2022/09/25 06:44:13;;;;;;;5.05;3.30;;;10.30;99.90;;;;;;5053386;28;20021;-81
2022/09/25 06:46:39;;;;;;;4.15;3.17;;;10.40;99.90;;;;;;5052113;28;20029;-81
2022/09/25 06:49:04;;;;;;;6.68;3.17;;;10.50;99.90;;;;;;5036427;28;20037;-82
2022/09/25 06:51:33;;;;;;;8.63;3.45;;;10.60;99.90;;;;;;5032991;28;20087;-81
2022/09/25 06:53:59;;;;;;;6.65;2.90;;;10.80;99.90;;;;;;5033925;28;20025;-80
2022/09/25 06:56:25;;;;;;;7.32;2.97;;;10.80;99.90;;;;;;5052840;28;20021;-80
2022/09/25 06:58:50;;;;;;;4.88;2.75;;;10.90;99.90;;;;;;5049965;28;20388;-82
2022/09/25 07:01:16;;;;;;;7.72;3.42;;;11.00;99.90;;;;;;5038252;28;20362;-82
2022/09/25 07:03:45;;;;;;;3.00;2.67;;;11.00;99.90;;;;;;5052290;28;20037;-81
2022/09/25 07:06:18;;;;;;;5.55;2.63;;;11.10;99.90;;;;;;5048363;28;20732;-81
2022/09/25 07:08:46;;;;;;;2.45;2.25;;;11.20;99.90;;;;;;5032719;28;20033;-82
2022/09/25 07:11:15;;;;;;;4.60;3.08;;;11.30;99.90;;;;;;5051395;28;20036;-81
2022/09/25 07:13:41;;;;;;;5.85;3.60;;;11.30;99.90;;;;;;5058465;28;20028;-81
2022/09/25 07:16:14;;;;;;;3.20;2.90;;;11.40;99.90;;;;;;5049982;28;20036;-81
2022/09/25 07:18:39;;;;;;;9.25;3.03;;;11.40;99.90;;;;;;5033100;28;20037;-81
2022/09/25 07:21:12;;;;;;;4.28;2.75;;;11.50;99.90;;;;;;5032768;28;20033;-81
2022/09/25 07:23:40;;;;;;;5.05;2.85;;;11.60;99.90;;;;;;5049330;28;20060;-81
2022/09/25 07:26:11;;;;;;;6.82;3.08;;;11.60;99.90;;;;;;5044474;28;20030;-82
2022/09/25 07:28:38;;;;;;;7.93;3.28;;;11.70;99.90;;;;;;5037996;28;20099;-81
2022/09/25 07:31:27;;;;;;;5.70;3.35;;;11.70;99.90;;;;;;5054168;28;20044;-83
2022/09/25 07:33:52;;;;;;;8.75;3.15;;;11.70;99.90;;;;;;5049098;28;20025;-82
2022/09/25 07:36:19;;;;;;;5.25;3.00;;;11.70;99.90;;;;;;5038309;28;20366;-83
2022/09/25 07:38:52;;;;;;;7.40;3.33;;;11.60;99.90;;;;;;5043705;28;20033;-83
2022/09/25 07:41:18;;;;;;;3.90;2.53;;;11.60;99.90;;;;;;5062612;28;19997;-83
2022/09/25 07:43:45;;;;;;;4.25;2.90;;;11.60;99.90;;;;;;5056520;28;20125;-82
2022/09/25 07:46:11;;;;;;;9.30;3.67;;;11.70;99.90;;;;;;5053175;28;20029;-81
2022/09/25 07:48:37;;;;;;;5.07;3.08;;;11.60;99.90;;;;;;5051436;28;20013;-82
2022/09/25 07:51:07;;;;;;;6.90;2.83;;;11.70;99.90;;;;;;5056052;28;20021;-83
2022/09/25 07:53:33;;;;;;;6.32;2.50;;;11.80;99.90;;;;;;5055901;28;20040;-81
2022/09/25 07:56:00;;;;;;;6.28;2.30;;;11.90;99.90;;;;;;5070920;28;20080;-81
2022/09/25 07:58:27;;;;;;;7.40;2.53;;;11.90;99.90;;;;;;5064172;28;20053;-81
2022/09/25 08:00:53;;;;;;;5.10;2.70;;;12.00;99.90;;;;;;5062881;28;20028;-83
2022/09/25 08:03:20;;;;;;;7.10;2.78;;;12.00;99.90;;;;;;5063905;28;20029;-81
2022/09/25 08:05:46;;;;;;;3.72;2.10;;;12.10;99.90;;;;;;5058482;28;20040;-82
2022/09/25 08:08:11;;;;;;;10.55;3.55;;;12.20;99.90;;;;;;5058514;28;20029;-82
2022/09/25 08:10:37;;;;;;;6.90;1.98;;;12.30;99.90;;;;;;5053436;28;20021;-78
2022/09/25 08:13:03;;;;;;;5.43;2.33;;;12.40;99.90;;;;;;5049291;28;20028;-78
2022/09/25 08:15:29;;;;;;;5.85;2.05;;;12.40;99.90;;;;;;5045432;28;20040;-78
2022/09/25 08:17:54;;;;;;;6.57;1.73;;;12.60;99.90;;;;;;5048202;28;20098;-78
2022/09/25 08:20:20;;;;;;;5.13;1.88;;;12.60;99.90;;;;;;5052157;28;20021;-78
2022/09/25 08:22:46;;;;;;;4.68;1.50;;;12.80;99.90;;;;;;5048720;28;20512;-77
2022/09/25 08:25:12;;;;;;;7.82;2.25;;;12.80;99.90;;;;;;5050751;28;20029;-79
2022/09/25 08:27:39;;;;;;;4.50;1.75;;;13.00;99.90;;;;;;5041593;28;20129;-79
2022/09/25 08:30:07;;;;;;;5.85;1.63;;;13.10;99.90;;;;;;5035154;28;20025;-76
2022/09/25 08:32:33;;;;;;;6.93;1.80;;;13.30;99.90;;;;;;5042102;28;20021;-79
2022/09/25 08:35:00;;;;;;;5.22;1.30;;;13.40;99.90;;;;;;5045261;28;20119;-76
2022/09/25 08:37:25;;;;;;;7.43;1.40;;;13.50;99.90;;;;;;5039154;28;20106;-80
2022/09/25 08:39:51;;;;;;;8.23;1.80;;;13.70;99.90;;;;;;5042586;28;20533;-76
2022/09/25 08:42:25;;;;;;;4.43;1.30;;;13.80;99.90;;;;;;5034788;28;20048;-76
2022/09/25 08:49:00;;;;;;;8.63;1.65;;;14.00;99.90;;;;;;5033791;28;20014;-78
2022/09/25 08:50:24;;;;;;;4.13;1.08;;;14.20;99.90;;;;;;5042312;28;20024;-76
2022/09/25 08:53:06;;;;;;;3.95;1.20;;;14.20;99.90;;;;;;5034881;28;20022;-79
2022/09/25 08:58:41;;;;;;;3.80;1.08;;;14.30;99.90;;;;;;5050005;28;20036;-77
2022/09/25 09:01:13;;;;;;;3.97;0.80;;;14.20;99.90;;;;;;5049420;28;20051;-75
2022/09/25 09:03:57;;;;;;;5.40;1.10;;;14.20;99.90;;;;;;5048499;28;20029;-76
2022/09/25 09:06:25;;;;;;;4.28;1.70;;;14.20;99.90;;;;;;5051863;28;20025;-76
2022/09/25 09:09:04;;;;;;;5.30;1.80;;;14.10;99.90;;;;;;5050329;28;20100;-78
2022/09/25 09:12:00;;;;;;;10.88;1.65;;;14.10;99.90;;;;;;5049699;28;20025;-77
2022/09/25 09:14:30;;;;;;;7.10;1.60;;;14.10;99.90;;;;;;5046785;28;20078;-77
2022/09/25 09:17:17;;;;;;;6.13;2.80;;;14.00;99.90;;;;;;5041028;28;20493;-78
2022/09/25 09:19:46;;;;;;;9.98;1.70;;;14.00;99.90;;;;;;5045994;28;20037;-78
2022/09/25 09:22:15;;;;;;;5.18;1.25;;;14.00;99.90;;;;;;5049518;28;20082;-76
2022/09/25 09:24:57;;;;;;;8.65;1.80;;;14.00;99.90;;;;;;5044813;28;20029;-76
2022/09/25 09:27:42;;;;;;;8.90;1.25;;;14.00;99.90;;;;;;5047178;28;20106;-77
2022/09/25 09:30:22;;;;;;;8.27;1.00;;;14.10;99.90;;;;;;5049472;28;20021;-77
2022/09/25 09:33:40;;;;;;;6.10;1.37;;;14.30;99.90;;;;;;5043942;28;20678;-77
2022/09/25 09:36:11;;;;;;;7.43;1.40;;;14.40;99.90;;;;;;5019210;28;20068;-77
2022/09/25 09:39:03;;;;;;;6.18;1.15;;;14.60;99.90;;;;;;5047710;28;20025;-78
2022/09/25 09:41:43;;;;;;;5.93;1.20;;;14.60;99.90;;;;;;5045353;28;20029;-78
2022/09/25 09:44:25;;;;;;;2.65;1.05;;;14.80;99.90;;;;;;5044947;28;20485;-77
2022/09/25 09:47:05;;;;;;;8.80;1.75;;;14.80;99.90;;;;;;5047756;28;20035;-78
2022/09/25 09:49:38;;;;;;;3.80;1.35;;;14.80;99.90;;;;;;5041066;28;20038;-78
2022/09/25 09:52:18;;;;;;;8.00;1.85;;;14.80;99.90;;;;;;5046554;28;20033;-77
2022/09/25 09:55:09;;;;;;;3.58;1.27;;;14.90;99.90;;;;;;5049417;28;20040;-79
2022/09/25 09:57:44;;;;;;;5.72;1.30;;;15.00;99.90;;;;;;5054858;28;20481;-76
2022/09/25 10:00:15;;;;;;;5.45;1.63;;;15.10;99.90;;;;;;5050038;28;20013;-78
2022/09/25 10:02:58;;;;;;;3.95;0.90;;;15.20;99.90;;;;;;5049434;28;20032;-75
2022/09/25 10:05:39;;;;;;;3.35;1.00;;;15.30;99.90;;;;;;5047309;28;20040;-78
2022/09/25 10:08:05;;;;;;;3.90;0.88;;;15.40;99.90;;;;;;5050264;28;20064;-77
2022/09/25 10:10:36;;;;;;;4.03;0.75;;;15.50;99.90;;;;;;5048013;28;20024;-77
2022/09/25 10:13:05;;;;;;;;;;;15.60;99.90;;;;;;5048354;28;20041;-77
2022/09/25 10:15:39;;;;;;;3.55;0.95;;;15.60;99.90;;;;;;5047149;28;19944;-77
2022/09/25 10:18:06;;;;;;;1.60;0.50;;;15.60;99.90;;;;;;5047639;28;20116;-74
2022/09/25 10:21:21;;;;;;;12.45;1.30;;;15.60;99.90;;;;;;5046861;28;20103;-77
2022/09/25 10:23:52;;;;;;;4.00;1.05;;;15.60;99.90;;;;;;5029305;28;20095;-76
2022/09/25 10:26:32;;;;;;;4.22;1.00;;;15.70;99.90;;;;;;5050203;28;20434;-76
2022/09/25 10:29:03;;;;;;;4.60;0.82;;;15.70;99.90;;;;;;5047482;28;20090;-76
2022/09/25 10:31:39;;;;;;;4.78;0.75;;;15.80;99.90;;;;;;5047904;28;20029;-76
2022/09/25 10:34:22;;;;;;;1.90;1.02;;;15.90;99.90;;;;;;5047419;28;20043;-76
2022/09/25 10:36:50;;;;;;;2.88;1.00;;;16.10;99.90;;;;;;5044746;28;20496;-76
2022/09/25 10:39:37;;;;;;;2.65;1.02;;;16.20;99.90;;;;;;5045150;28;20033;-76
2022/09/25 10:42:25;;;;;;;5.28;1.38;;;16.20;99.90;;;;;;5043219;28;20033;-76
2022/09/25 10:44:55;;;;;;;6.50;1.77;;;16.30;99.90;;;;;;5031961;28;20022;-75
2022/09/25 10:50:17;;;;;;;3.13;0.82;;;16.30;99.90;;;;;;5032220;28;20397;-76
2022/09/25 10:52:54;;;;;;;7.38;0.70;;;16.40;99.90;;;;;;5029436;28;20038;-76
2022/09/25 10:55:29;;;;;;;1.70;0.60;;;16.30;99.90;;;;;;5031630;28;20148;-77
2022/09/25 10:58:09;;;;;;;1.20;0.40;;;16.40;99.90;;;;;;5032667;28;20615;-77
2022/09/25 11:00:52;;;;;;;2.38;0.60;;;16.20;99.90;;;;;;5032612;28;20022;-76
2022/09/25 11:03:24;;;;;;;1.25;0.50;;;16.10;99.90;;;;;;5043133;28;20497;-84
2022/09/25 11:06:04;;;;;;;3.53;0.60;;;16.10;99.90;;;;;;5049334;28;20074;-77
2022/09/25 11:08:33;;;;;;;5.43;0.70;;;16.20;99.90;;;;;;5050904;28;20544;-77
2022/09/25 11:11:01;;;;;;;1.20;0.52;;;16.20;99.90;;;;;;5047165;28;20036;-74
2022/09/25 11:13:53;;;;;;;4.03;0.70;;;16.20;99.90;;;;;;5034232;28;20420;-76
2022/09/25 11:16:19;;;;;;;1.88;0.50;;;16.10;99.90;;;;;;5045396;28;20021;-75
2022/09/25 11:18:45;;;;;;;1.35;0.50;;;16.10;99.90;;;;;;5042034;28;20071;-77
2022/09/25 11:21:43;;;;;;;1.83;0.68;;;16.20;99.90;;;;;;5048188;28;20049;-77
2022/09/25 11:24:16;;;;;;;4.15;0.50;;;16.10;99.90;;;;;;5050520;28;20029;-76
2022/09/25 11:27:17;;;;;;;1.83;0.57;;;16.10;99.90;;;;;;5047188;28;20025;-76
2022/09/25 11:30:01;;;;;;;;;;;16.30;99.90;;;;;;5056602;28;20021;-77
2022/09/25 11:32:33;;;;;;;2.67;0.55;;;16.40;99.90;;;;;;5055606;28;19909;-77
2022/09/25 11:35:24;;;;;;;0.95;0.43;;;16.50;99.90;;;;;;5054553;28;20021;-74
2022/09/25 11:38:07;;;;;;;0.70;0.40;;;16.60;99.90;;;;;;5055451;28;20450;-74
2022/09/25 11:41:13;;;;;;;2.92;0.60;;;16.60;99.90;;;;;;5055283;28;20166;-76
2022/09/25 11:44:00;;;;;;;2.92;0.63;;;16.70;99.90;;;;;;5047022;28;20045;-74
2022/09/25 11:46:42;;;;;;;5.47;0.30;;;16.80;99.90;;;;;;5058896;28;20140;-76
2022/09/25 11:49:23;;;;;;;2.58;0.47;;;16.80;99.90;;;;;;5043568;28;20037;-76
2022/09/25 11:52:18;;;;;;;1.02;0.55;;;16.70;99.90;;;;;;5036952;28;20026;-77
2022/09/25 11:55:11;;;;;;;2.22;0.60;;;16.60;99.90;;;;;;5036787;28;20032;-76
2022/09/25 11:58:08;;;;;;;0.77;0.38;;;16.50;99.90;;;;;;5039190;28;20382;-75
2022/09/25 12:00:55;;;;;;;2.75;0.75;;;16.40;99.90;;;;;;5045056;28;20009;-76
2022/09/25 12:03:36;;;;;;;1.15;0.70;;;16.60;99.90;;;;;;5047902;28;20033;-76
2022/09/25 12:06:27;;;;;;;2.70;0.63;;;16.70;99.90;;;;;;5036803;28;20025;-76
2022/09/25 12:09:06;;;;;;;;;;;16.80;99.90;;;;;;5034958;28;20071;-75
2022/09/25 12:11:55;;;;;;;6.25;1.20;;;17.00;99.90;;;;;;5035134;28;19905;-76
2022/09/25 12:14:37;;;;;;;1.95;1.00;;;17.30;99.90;;;;;;5035344;28;20049;-76
2022/09/25 12:17:21;;;;;;;4.18;1.00;;;17.50;99.90;;;;;;5050002;28;20488;-76
2022/09/25 12:19:51;;;;;;;2.47;0.82;;;17.80;99.90;;;;;;5054861;28;20419;-76
2022/09/25 12:22:42;;;;;;;3.08;0.70;;;18.00;99.90;;;;;;5055040;28;20408;-75
2022/09/25 12:25:36;;;;;;;3.65;1.00;;;18.00;99.90;;;;;;5054753;28;20542;-76
2022/09/25 12:28:02;;;;;;;2.50;0.80;;;18.10;99.90;;;;;;5042976;28;20430;-76
2022/09/25 12:30:46;;;;;;;3.58;1.00;;;18.10;99.90;;;;;;5053891;28;20033;-75
2022/09/25 12:33:24;;;;;;;2.45;0.98;;;18.00;99.90;;;;;;5054980;28;20017;-75
2022/09/25 12:36:14;;;;;;;5.70;0.80;;;17.80;99.90;;;;;;5054877;28;20029;-76
2022/09/25 12:38:43;;;;;;;;;;;17.70;99.90;;;;;;5054574;28;20021;-76
2022/09/25 12:41:39;;;;;;;5.85;0.70;;;17.50;99.90;;;;;;5054866;28;19908;-76
2022/09/25 12:44:19;;;;;;;1.85;0.52;;;17.40;99.90;;;;;;5053623;28;20075;-77
2022/09/25 12:46:58;;;;;;;1.95;0.77;;;17.20;99.90;;;;;;5054262;28;20017;-77
2022/09/25 12:49:39;;;;;;;1.90;0.60;;;17.10;99.90;;;;;;5054121;28;20025;-75
2022/09/25 12:52:11;;;;;;;5.30;1.10;;;17.00;99.90;;;;;;5053838;28;20051;-76
2022/09/25 12:54:52;;;;;;;2.97;0.70;;;16.50;99.90;;;;;;5054702;28;20035;-76
2022/09/25 12:57:20;;;;;;;;;;;16.80;99.90;;;;;;5055247;28;20025;-75
2022/09/25 12:59:51;;;;;;;4.60;0.80;;;16.50;99.90;;;;;;5053556;28;19905;-75
2022/09/25 13:02:29;;;;;;;3.42;0.70;;;16.40;99.90;;;;;;5054232;28;20512;-74
2022/09/25 13:05:16;;;;;;;2.75;0.93;;;16.30;99.90;;;;;;5053588;28;20029;-76
2022/09/25 13:08:10;;;;;;;3.33;0.90;;;16.10;99.90;;;;;;5053966;28;20112;-75
2022/09/25 13:10:40;;;;;;;1.50;0.70;;;16.00;99.90;;;;;;5056700;28;20051;-75
2022/09/25 13:13:18;;;;;;;1.08;0.57;;;15.90;99.90;;;;;;5055159;28;20036;-75
2022/09/25 13:15:49;;;;;;;3.13;0.60;;;15.60;99.90;;;;;;5039778;28;20055;-76
2022/09/25 13:18:21;;;;;;;3.05;0.80;;;15.20;99.90;;;;;;5054072;28;20029;-76
2022/09/25 13:20:57;;;;;;;2.70;0.80;;;15.10;99.90;;;;;;5052812;28;20021;-76
2022/09/25 13:23:31;;;;;;;6.28;0.90;;;14.90;99.90;;;;;;5041933;28;20041;-75
2022/09/25 13:26:16;;;;;;;1.17;0.65;;;14.80;99.90;;;;;;5047681;28;20018;-76
2022/09/25 13:28:56;;;;;;;1.33;0.60;;;14.70;99.90;;;;;;5046843;28;20124;-77
2022/09/25 13:31:26;;;;;;;2.03;0.80;;;14.70;99.90;;;;;;5040842;28;20424;-76
2022/09/25 13:34:10;;;;;;;2.17;0.60;;;14.60;99.90;;;;;;5058334;28;20084;-76
2022/09/25 13:36:50;;;;;;;2.20;0.80;;;14.70;99.90;;;;;;5053946;28;20032;-76
2022/09/25 13:42:44;;;;;;;3.85;0.63;;;14.90;99.90;;;;;;5053004;28;20159;-75
2022/09/25 13:45:36;;;;;;;1.10;0.77;;;15.00;99.90;;;;;;5044412;28;20025;-75